createdAt,value
2017-09-02T00:00:41.333Z,14.70
2017-09-02T00:03:14.929Z,14.70
2017-09-02T00:05:48.528Z,14.50
2017-09-02T00:08:22.108Z,14.40
2017-09-02T00:10:55.728Z,14.40
2017-09-02T00:13:30.009Z,14.60
2017-09-02T00:16:03.598Z,14.60
2017-09-02T00:18:37.119Z,14.60
2017-09-02T00:21:10.661Z,14.70
2017-09-02T00:23:44.264Z,14.70
2017-09-02T00:26:17.839Z,14.80
2017-09-02T00:28:51.423Z,14.80
2017-09-02T00:31:25.047Z,14.70
2017-09-02T00:33:58.601Z,14.70
2017-09-02T00:36:32.285Z,14.60
2017-09-02T00:39:05.832Z,14.70
2017-09-02T00:41:39.390Z,14.70
2017-09-02T00:44:12.930Z,14.70
2017-09-02T00:46:46.528Z,14.80
2017-09-02T00:49:20.072Z,14.80
2017-09-02T00:51:53.775Z,14.80
2017-09-02T00:54:27.446Z,14.80
2017-09-02T00:57:01.024Z,14.80
2017-09-02T00:59:34.546Z,14.80
2017-09-02T01:02:08.110Z,14.80
2017-09-02T01:04:41.868Z,14.80
2017-09-02T01:07:15.399Z,14.80
2017-09-02T01:09:48.908Z,14.80
2017-09-02T01:12:22.512Z,14.80
2017-09-02T01:14:56.172Z,14.70
2017-09-02T01:17:29.764Z,14.50
2017-09-02T01:20:03.305Z,14.40
2017-09-02T01:22:36.999Z,14.30
2017-09-02T01:25:10.645Z,14.40
2017-09-02T01:27:44.369Z,14.20
2017-09-02T01:30:23.664Z,14.10
2017-09-02T01:32:57.328Z,14.00
2017-09-02T01:35:30.885Z,14.00
2017-09-02T01:38:04.508Z,14.10
2017-09-02T01:40:38.142Z,14.00
2017-09-02T01:43:12.531Z,14.20
2017-09-02T01:45:46.058Z,14.20
2017-09-02T01:48:19.657Z,14.30
2017-09-02T01:50:53.165Z,14.30
2017-09-02T01:53:26.756Z,14.30
2017-09-02T01:56:00.554Z,14.10
2017-09-02T01:58:34.097Z,14.10
2017-09-02T02:01:08.140Z,14.20
2017-09-02T02:03:41.755Z,14.10
2017-09-02T02:06:15.319Z,14.10
2017-09-02T02:08:48.876Z,14.10
2017-09-02T02:11:22.426Z,14.10
2017-09-02T02:13:56.020Z,14.20
2017-09-02T02:16:29.557Z,14.20
2017-09-02T02:19:03.108Z,14.30
2017-09-02T02:21:36.742Z,14.40
2017-09-02T02:24:10.332Z,14.40
2017-09-02T02:26:43.876Z,14.40
2017-09-02T02:29:17.431Z,14.40
2017-09-02T02:31:51.049Z,14.30
2017-09-02T02:34:24.619Z,14.30
2017-09-02T02:36:58.236Z,14.20
2017-09-02T02:39:31.911Z,14.20
2017-09-02T02:42:05.462Z,13.90
2017-09-02T02:44:39.007Z,13.90
2017-09-02T02:47:12.595Z,13.80
2017-09-02T02:49:46.158Z,14.00
2017-09-02T02:52:19.665Z,14.00
2017-09-02T02:54:53.255Z,14.00
2017-09-02T02:57:26.905Z,14.00
2017-09-02T03:00:00.511Z,14.10
2017-09-02T03:02:34.091Z,14.10
2017-09-02T03:05:07.778Z,14.00
2017-09-02T03:07:41.387Z,13.90
2017-09-02T03:10:14.977Z,13.90
2017-09-02T03:12:48.499Z,14.00
2017-09-02T03:15:22.039Z,14.00
2017-09-02T03:17:55.585Z,14.00
2017-09-02T03:20:29.259Z,13.90
2017-09-02T03:23:02.798Z,14.00
2017-09-02T03:25:36.420Z,13.90
2017-09-02T03:28:10.017Z,13.90
2017-09-02T03:30:43.629Z,13.90
2017-09-02T03:33:17.213Z,13.90
2017-09-02T03:35:50.812Z,13.90
2017-09-02T03:38:24.408Z,13.80
2017-09-02T03:40:58.749Z,13.80
2017-09-02T03:43:32.410Z,13.80
2017-09-02T03:46:05.961Z,13.60
2017-09-02T03:48:39.513Z,13.70
2017-09-02T03:51:13.093Z,13.80
2017-09-02T03:53:46.824Z,13.80
2017-09-02T03:56:20.433Z,13.70
2017-09-02T03:58:54.011Z,13.60
2017-09-02T04:01:27.520Z,13.80
2017-09-02T04:04:01.095Z,13.70
2017-09-02T04:06:34.656Z,13.80
2017-09-02T04:09:08.225Z,13.80
2017-09-02T04:11:41.825Z,13.70
2017-09-02T04:14:15.455Z,13.60
2017-09-02T04:16:49.027Z,13.50
2017-09-02T04:19:22.630Z,13.40
2017-09-02T04:21:56.237Z,13.30
2017-09-02T04:24:29.764Z,13.30
2017-09-02T04:27:03.324Z,13.30
2017-09-02T04:29:36.904Z,13.00
2017-09-02T04:32:10.471Z,13.10
2017-09-02T04:34:44.048Z,13.20
2017-09-02T04:37:17.613Z,13.30
2017-09-02T04:39:51.268Z,13.50
2017-09-02T04:42:24.916Z,13.50
2017-09-02T04:44:58.442Z,13.30
2017-09-02T04:47:31.932Z,13.40
2017-09-02T04:50:05.437Z,13.30
2017-09-02T04:52:39.063Z,13.30
2017-09-02T04:55:12.700Z,13.30
2017-09-02T04:57:46.243Z,13.40
2017-09-02T05:00:19.839Z,13.50
2017-09-02T05:02:53.443Z,13.30
2017-09-02T05:05:26.984Z,13.30
2017-09-02T05:08:00.635Z,13.30
2017-09-02T05:10:34.172Z,13.20
2017-09-02T05:13:07.724Z,13.30
2017-09-02T05:15:41.303Z,13.30
2017-09-02T05:18:14.824Z,13.20
2017-09-02T05:20:48.424Z,13.10
2017-09-02T05:23:22.024Z,13.20
2017-09-02T05:25:55.597Z,13.00
2017-09-02T05:28:29.152Z,13.10
2017-09-02T05:31:02.928Z,13.40
2017-09-02T05:33:36.531Z,13.30
2017-09-02T05:36:10.021Z,13.30
2017-09-02T05:38:43.556Z,13.20
2017-09-02T05:41:17.075Z,13.30
2017-09-02T05:43:50.629Z,13.30
2017-09-02T05:46:24.179Z,13.30
2017-09-02T05:48:57.829Z,13.30
2017-09-02T05:51:31.399Z,13.20
2017-09-02T05:54:04.944Z,13.20
2017-09-02T05:56:38.554Z,13.20
2017-09-02T05:59:12.064Z,13.20
2017-09-02T06:01:45.645Z,13.20
2017-09-02T06:04:19.219Z,13.40
2017-09-02T06:06:52.795Z,13.40
2017-09-02T06:09:26.344Z,13.40
2017-09-02T06:11:59.917Z,13.40
2017-09-02T06:14:33.488Z,13.30
2017-09-02T06:17:06.996Z,13.20
2017-09-02T06:19:40.569Z,13.10
2017-09-02T06:22:14.114Z,13.30
2017-09-02T06:24:47.648Z,13.40
2017-09-02T06:27:21.304Z,13.40
2017-09-02T06:29:54.912Z,13.30
2017-09-02T06:32:28.607Z,13.30
2017-09-02T06:35:02.322Z,13.30
2017-09-02T06:37:35.857Z,13.40
2017-09-02T06:40:09.434Z,13.30
2017-09-02T06:42:43.209Z,13.30
2017-09-02T06:45:16.749Z,13.30
2017-09-02T06:47:50.309Z,13.30
2017-09-02T06:50:23.933Z,13.30
2017-09-02T06:52:57.523Z,13.40
2017-09-02T06:55:31.119Z,13.30
2017-09-02T06:58:04.734Z,13.20
2017-09-02T07:00:38.485Z,13.10
2017-09-02T07:03:12.029Z,12.90
2017-09-02T07:05:45.604Z,12.90
2017-09-02T07:08:19.204Z,13.00
2017-09-02T07:10:52.817Z,13.00
2017-09-02T07:13:26.390Z,13.00
2017-09-02T07:16:00.027Z,12.80
2017-09-02T07:18:33.520Z,12.90
2017-09-02T07:21:07.209Z,13.00
2017-09-02T07:23:40.800Z,13.20
2017-09-02T07:26:14.412Z,13.20
2017-09-02T07:28:48.016Z,13.10
2017-09-02T07:31:21.619Z,13.00
2017-09-02T07:33:55.221Z,13.10
2017-09-02T07:36:28.737Z,13.00
2017-09-02T07:39:02.321Z,13.10
2017-09-02T07:41:36.049Z,13.10
2017-09-02T07:44:09.720Z,13.00
2017-09-02T07:46:43.321Z,13.10
2017-09-02T07:49:16.895Z,13.10
2017-09-02T07:51:50.467Z,13.10
2017-09-02T07:54:23.999Z,13.00
2017-09-02T07:56:57.616Z,12.80
2017-09-02T07:59:31.214Z,12.80
2017-09-02T08:02:04.799Z,13.00
2017-09-02T08:04:38.333Z,13.10
2017-09-02T08:07:11.941Z,13.00
2017-09-02T08:09:45.522Z,12.80
2017-09-02T08:12:19.068Z,12.90
2017-09-02T08:14:52.615Z,12.60
2017-09-02T08:17:26.869Z,12.70
2017-09-02T08:20:00.420Z,12.70
2017-09-02T08:22:34.744Z,12.80
2017-09-02T08:25:08.416Z,12.90
2017-09-02T08:27:41.991Z,12.80
2017-09-02T08:30:15.468Z,12.90
2017-09-02T08:32:49.067Z,13.10
2017-09-02T08:35:22.778Z,13.10
2017-09-02T08:37:56.352Z,13.10
2017-09-02T08:40:30.179Z,13.10
2017-09-02T08:43:04.511Z,13.10
2017-09-02T08:45:38.064Z,13.10
2017-09-02T08:48:11.791Z,13.10
2017-09-02T08:50:45.351Z,13.20
2017-09-02T08:53:18.974Z,13.30
2017-09-02T08:55:52.584Z,13.40
2017-09-02T08:58:26.177Z,13.50
2017-09-02T09:00:59.755Z,13.50
2017-09-02T09:03:33.390Z,13.50
2017-09-02T09:06:06.924Z,13.50
2017-09-02T09:08:40.612Z,13.50
2017-09-02T09:11:14.267Z,13.60
2017-09-02T09:13:47.827Z,13.60
2017-09-02T09:16:21.394Z,13.60
2017-09-02T09:18:54.995Z,13.60
2017-09-02T09:21:28.535Z,13.60
2017-09-02T09:24:02.049Z,13.70
2017-09-02T09:26:35.670Z,13.70
2017-09-02T09:29:09.229Z,13.70
2017-09-02T09:31:42.752Z,13.70
2017-09-02T09:34:16.472Z,13.70
2017-09-02T09:36:50.105Z,13.70
2017-09-02T09:39:23.673Z,13.50
2017-09-02T09:41:57.249Z,13.50
2017-09-02T09:44:30.874Z,13.50
2017-09-02T09:47:04.613Z,13.50
2017-09-02T09:49:39.097Z,13.50
2017-09-02T09:52:12.820Z,13.50
2017-09-02T09:54:47.141Z,13.60
2017-09-02T09:57:20.662Z,13.60
2017-09-02T09:59:54.243Z,13.60
2017-09-02T10:02:27.981Z,13.70
2017-09-02T10:05:01.690Z,13.80
2017-09-02T10:07:35.462Z,13.70
2017-09-02T10:10:09.049Z,13.70
2017-09-02T10:12:43.029Z,13.70
2017-09-02T10:15:16.689Z,13.70
2017-09-02T10:17:50.258Z,13.60
2017-09-02T10:20:23.785Z,13.60
2017-09-02T10:22:57.533Z,13.50
2017-09-02T10:25:31.339Z,13.60
2017-09-02T10:28:05.169Z,13.50
2017-09-02T10:30:39.120Z,13.60
2017-09-02T10:33:12.756Z,13.60
2017-09-02T10:35:46.575Z,13.70
2017-09-02T10:38:20.186Z,13.70
2017-09-02T10:40:54.025Z,13.70
2017-09-02T10:43:27.604Z,13.70
2017-09-02T10:46:01.176Z,13.70
2017-09-02T10:48:34.765Z,13.70
2017-09-02T10:51:08.293Z,13.70
2017-09-02T10:53:42.765Z,13.70
2017-09-02T10:56:16.504Z,13.70
2017-09-02T10:58:50.079Z,13.70
2017-09-02T11:01:23.652Z,13.70
2017-09-02T11:03:57.482Z,13.70
2017-09-02T11:06:31.247Z,13.70
2017-09-02T11:09:04.948Z,13.80
2017-09-02T11:11:38.493Z,13.70
2017-09-02T11:14:12.148Z,13.40
2017-09-02T11:16:45.820Z,13.60
2017-09-02T11:19:19.398Z,13.70
2017-09-02T11:21:53.037Z,13.80
2017-09-02T11:24:26.748Z,13.90
2017-09-02T11:27:00.307Z,13.90
2017-09-02T11:29:33.829Z,13.90
2017-09-02T11:32:07.450Z,14.00
2017-09-02T11:34:41.118Z,14.00
2017-09-02T11:37:14.663Z,14.10
2017-09-02T11:39:48.373Z,14.10
2017-09-02T11:42:22.047Z,13.40
2017-09-02T11:44:55.604Z,13.00
2017-09-02T11:47:29.280Z,13.10
2017-09-02T11:50:02.850Z,12.80
2017-09-02T11:52:36.555Z,12.70
2017-09-02T11:55:10.217Z,12.90
2017-09-02T11:57:43.826Z,13.00
2017-09-02T12:00:17.407Z,12.90
2017-09-02T12:02:51.032Z,12.80
2017-09-02T12:05:24.674Z,13.00
2017-09-02T12:07:58.228Z,12.90
2017-09-02T12:10:31.797Z,12.70
2017-09-02T12:13:05.509Z,12.60
2017-09-02T12:15:39.012Z,12.70
2017-09-02T12:18:12.634Z,12.40
2017-09-02T12:20:46.242Z,12.50
2017-09-02T12:23:19.957Z,12.70
2017-09-02T12:25:53.609Z,12.90
2017-09-02T12:28:27.236Z,12.80
2017-09-02T12:31:00.905Z,13.20
2017-09-02T12:33:34.444Z,13.20
2017-09-02T12:36:07.962Z,12.90
2017-09-02T12:38:41.557Z,12.80
2017-09-02T12:41:15.215Z,13.00
2017-09-02T12:43:48.932Z,12.70
2017-09-02T12:46:22.526Z,12.50
2017-09-02T12:48:56.181Z,12.60
2017-09-02T12:51:29.735Z,12.70
2017-09-02T12:54:03.426Z,12.90
2017-09-02T12:56:37.368Z,13.00
2017-09-02T12:59:10.991Z,13.20
2017-09-02T13:01:44.561Z,13.30
2017-09-02T13:04:18.512Z,13.40
2017-09-02T13:06:52.316Z,13.10
2017-09-02T13:09:25.965Z,13.00
2017-09-02T13:11:59.475Z,13.00
2017-09-02T13:14:32.995Z,13.10
2017-09-02T13:17:06.694Z,13.10
2017-09-02T13:19:40.252Z,13.10
2017-09-02T13:22:13.781Z,12.90
2017-09-02T13:24:48.266Z,12.90
2017-09-02T13:27:21.863Z,12.90
2017-09-02T13:29:55.387Z,12.90
2017-09-02T13:32:28.914Z,12.70
2017-09-02T13:35:02.583Z,12.80
2017-09-02T13:37:36.121Z,12.90
2017-09-02T13:40:09.671Z,12.90
2017-09-02T13:42:43.348Z,12.90
2017-09-02T13:45:16.969Z,12.90
2017-09-02T13:47:50.668Z,12.90
2017-09-02T13:50:24.193Z,12.70
2017-09-02T13:52:57.691Z,12.80
2017-09-02T13:55:31.268Z,13.00
2017-09-02T13:58:04.869Z,13.10
2017-09-02T14:00:38.542Z,12.90
2017-09-02T14:03:12.064Z,12.50
2017-09-02T14:05:45.683Z,12.60
2017-09-02T14:08:19.234Z,12.80
2017-09-02T14:10:52.946Z,13.00
2017-09-02T14:13:26.717Z,12.90
2017-09-02T14:16:00.256Z,12.90
2017-09-02T14:18:33.822Z,12.90
2017-09-02T14:21:07.409Z,13.10
2017-09-02T14:23:40.966Z,13.10
2017-09-02T14:26:14.507Z,13.30
2017-09-02T14:28:48.107Z,13.40
2017-09-02T14:31:21.811Z,13.30
2017-09-02T14:33:55.338Z,12.90
2017-09-02T14:36:29.075Z,12.90
2017-09-02T14:39:02.696Z,12.90
2017-09-02T14:41:36.255Z,12.60
2017-09-02T14:44:09.957Z,12.40
2017-09-02T14:46:43.564Z,12.40
2017-09-02T14:49:17.272Z,12.50
2017-09-02T14:51:50.891Z,12.70
2017-09-02T14:54:24.413Z,12.60
2017-09-02T14:56:58.005Z,12.50
2017-09-02T14:59:31.572Z,12.60
2017-09-02T15:02:05.269Z,12.40
2017-09-02T15:04:38.895Z,12.50
2017-09-02T15:07:12.536Z,12.30
2017-09-02T15:09:46.119Z,12.30
2017-09-02T15:12:19.722Z,12.30
2017-09-02T15:14:53.259Z,12.20
2017-09-02T15:17:26.824Z,12.20
2017-09-02T15:20:00.400Z,12.20
2017-09-02T15:22:33.936Z,12.10
2017-09-02T15:25:07.602Z,12.10
2017-09-02T15:27:41.188Z,12.30
2017-09-02T15:30:14.962Z,12.50
2017-09-02T15:32:48.939Z,12.40
2017-09-02T15:35:22.631Z,12.40
2017-09-02T15:37:56.343Z,12.30
2017-09-02T15:40:29.879Z,12.20
2017-09-02T15:43:03.534Z,12.30
2017-09-02T15:45:37.249Z,12.60
2017-09-02T15:48:10.937Z,12.90
2017-09-02T15:50:44.466Z,12.90
2017-09-02T15:53:18.070Z,13.00
2017-09-02T15:55:51.688Z,13.00
2017-09-02T15:58:25.201Z,12.70
2017-09-02T16:00:58.713Z,12.50
2017-09-02T16:03:32.443Z,12.40
2017-09-02T16:06:06.224Z,12.60
2017-09-02T16:08:39.762Z,12.40
2017-09-02T16:11:13.366Z,12.40
2017-09-02T16:13:46.973Z,12.40
2017-09-02T16:16:20.597Z,12.20
2017-09-02T16:18:54.312Z,12.10
2017-09-02T16:21:27.906Z,12.40
2017-09-02T16:24:01.511Z,12.60
2017-09-02T16:26:35.108Z,12.70
2017-09-02T16:29:08.722Z,12.80
2017-09-02T16:31:42.432Z,12.80
2017-09-02T16:34:16.081Z,12.70
2017-09-02T16:36:49.711Z,12.70
2017-09-02T16:39:23.307Z,12.50
2017-09-02T16:41:56.940Z,12.40
2017-09-02T16:44:30.608Z,12.30
2017-09-02T16:47:04.130Z,12.20
2017-09-02T16:49:37.804Z,12.20
2017-09-02T16:52:11.355Z,12.40
2017-09-02T16:54:45.050Z,12.50
2017-09-02T16:57:18.640Z,12.60
2017-09-02T16:59:52.190Z,12.70
2017-09-02T17:02:25.858Z,12.90
2017-09-02T17:04:59.546Z,13.00
2017-09-02T17:07:33.419Z,13.10
2017-09-02T17:10:07.142Z,13.10
2017-09-02T17:12:40.826Z,12.60
2017-09-02T17:15:14.407Z,12.60
2017-09-02T17:17:48.079Z,12.60
2017-09-02T17:20:21.911Z,12.40
2017-09-02T17:22:55.729Z,12.30
2017-09-02T17:25:30.591Z,12.50
2017-09-02T17:28:04.477Z,12.80
2017-09-02T17:30:38.270Z,12.90
2017-09-02T17:33:11.935Z,13.00
2017-09-02T17:35:45.618Z,13.10
2017-09-02T17:38:19.333Z,13.10
2017-09-02T17:40:52.894Z,13.10
2017-09-02T17:43:26.620Z,13.20
2017-09-02T17:46:00.195Z,13.10
2017-09-02T17:48:33.777Z,12.90
2017-09-02T17:51:07.316Z,12.70
2017-09-02T17:53:40.871Z,12.60
2017-09-02T17:56:14.687Z,12.70
2017-09-02T17:58:48.274Z,12.20
2017-09-02T18:01:21.949Z,12.30
2017-09-02T18:03:55.690Z,12.40
2017-09-02T18:06:29.440Z,12.50
2017-09-02T18:09:02.977Z,12.50
2017-09-02T18:11:36.567Z,12.70
2017-09-02T18:14:10.344Z,12.90
2017-09-02T18:16:43.925Z,13.00
2017-09-02T18:19:17.695Z,13.10
2017-09-02T18:21:51.321Z,12.90
2017-09-02T18:24:24.831Z,12.90
2017-09-02T18:26:58.423Z,12.70
2017-09-02T18:29:32.001Z,12.60
2017-09-02T18:32:05.520Z,12.50
2017-09-02T18:34:39.207Z,12.40
2017-09-02T18:37:12.760Z,12.20
2017-09-02T18:39:46.389Z,12.20
2017-09-02T18:42:19.977Z,12.30
2017-09-02T18:44:53.598Z,12.30
2017-09-02T18:47:27.124Z,12.40
2017-09-02T18:50:00.636Z,12.50
2017-09-02T18:52:34.333Z,12.70
2017-09-02T18:55:08.021Z,12.80
2017-09-02T18:57:41.571Z,12.80
2017-09-02T19:00:15.405Z,12.90
2017-09-02T19:02:49.085Z,13.00
2017-09-02T19:05:22.716Z,13.00
2017-09-02T19:07:56.448Z,13.00
2017-09-02T19:10:30.016Z,12.80
2017-09-02T19:13:03.638Z,12.60
2017-09-02T19:15:37.172Z,12.20
2017-09-02T19:18:10.737Z,12.20
2017-09-02T19:20:44.322Z,12.20
2017-09-02T19:23:17.904Z,12.00
2017-09-02T19:25:51.500Z,11.90
2017-09-02T19:28:25.187Z,11.80
2017-09-02T19:30:58.792Z,12.00
2017-09-02T19:33:32.369Z,12.20
2017-09-02T19:36:05.940Z,12.20
2017-09-02T19:38:39.520Z,12.20
2017-09-02T19:41:13.096Z,12.50
2017-09-02T19:43:46.660Z,12.50
2017-09-02T19:46:20.219Z,12.60
2017-09-02T19:48:53.772Z,12.70
2017-09-02T19:51:27.370Z,12.80
2017-09-02T19:54:01.001Z,12.90
2017-09-02T19:56:34.696Z,12.90
2017-09-02T19:59:08.512Z,12.90
2017-09-02T20:01:42.152Z,12.90
2017-09-02T20:04:15.733Z,12.90
2017-09-02T20:06:49.276Z,12.70
2017-09-02T20:09:23.035Z,12.80
2017-09-02T20:11:56.626Z,12.80
2017-09-02T20:14:30.232Z,12.50
2017-09-02T20:17:03.832Z,12.40
2017-09-02T20:19:37.569Z,12.20
2017-09-02T20:22:11.149Z,12.20
2017-09-02T20:24:44.799Z,12.40
2017-09-02T20:27:18.351Z,12.40
2017-09-02T20:29:52.036Z,12.30
2017-09-02T20:32:25.647Z,12.30
2017-09-02T20:34:59.255Z,12.30
2017-09-02T20:37:32.861Z,12.20
2017-09-02T20:40:06.458Z,12.30
2017-09-02T20:42:40.028Z,12.30
2017-09-02T20:45:13.572Z,12.40
2017-09-02T20:47:47.105Z,12.50
2017-09-02T20:50:20.765Z,12.20
2017-09-02T20:52:54.320Z,12.10
2017-09-02T20:55:27.860Z,12.10
2017-09-02T20:58:01.435Z,12.20
2017-09-02T21:00:35.024Z,12.20
2017-09-02T21:03:08.642Z,12.40
2017-09-02T21:05:42.236Z,12.50
2017-09-02T21:08:15.834Z,12.60
2017-09-02T21:10:49.377Z,12.60
2017-09-02T21:13:22.925Z,12.70
2017-09-02T21:15:56.538Z,12.40
2017-09-02T21:18:30.133Z,12.30
2017-09-02T21:21:03.739Z,12.00
2017-09-02T21:23:37.292Z,12.20
2017-09-02T21:26:10.905Z,12.30
2017-09-02T21:28:44.638Z,12.40
2017-09-02T21:31:18.236Z,12.30
2017-09-02T21:33:52.455Z,12.10
2017-09-02T21:36:26.067Z,12.00
2017-09-02T21:38:59.621Z,11.90
2017-09-02T21:41:33.409Z,11.60
2017-09-02T21:44:06.943Z,11.50
2017-09-02T21:46:40.525Z,11.60
2017-09-02T21:49:14.091Z,11.80
2017-09-02T21:51:47.762Z,11.90
2017-09-02T21:54:21.272Z,11.90
2017-09-02T21:56:54.896Z,11.90
2017-09-02T21:59:28.432Z,11.50
2017-09-02T22:02:02.163Z,11.60
2017-09-02T22:04:35.693Z,11.90
2017-09-02T22:07:09.258Z,12.10
2017-09-02T22:09:42.778Z,12.20
2017-09-02T22:12:16.370Z,12.10
2017-09-02T22:14:49.934Z,12.00
2017-09-02T22:17:23.653Z,12.20
2017-09-02T22:19:57.376Z,12.30
2017-09-02T22:22:30.886Z,12.30
2017-09-02T22:25:04.597Z,12.40
2017-09-02T22:27:38.173Z,12.40
2017-09-02T22:30:11.916Z,12.50
2017-09-02T22:32:45.731Z,12.50
2017-09-02T22:35:19.287Z,12.50
2017-09-02T22:37:52.824Z,12.50
2017-09-02T22:40:26.394Z,12.40
2017-09-02T22:42:59.932Z,12.50
2017-09-02T22:45:33.591Z,12.50
2017-09-02T22:48:07.188Z,12.30
2017-09-02T22:50:40.697Z,12.20
2017-09-02T22:53:14.213Z,12.40
2017-09-02T22:55:47.860Z,12.40
2017-09-02T22:58:21.468Z,12.50
2017-09-02T23:00:55.014Z,12.50
2017-09-02T23:03:28.543Z,12.60
2017-09-02T23:06:02.152Z,12.60
2017-09-02T23:08:35.744Z,12.60
2017-09-02T23:11:09.501Z,12.60
2017-09-02T23:13:43.178Z,12.60
2017-09-02T23:16:16.700Z,12.60
2017-09-02T23:18:50.421Z,12.60
2017-09-02T23:21:24.111Z,12.60
2017-09-02T23:23:57.623Z,12.50
2017-09-02T23:26:31.191Z,12.10
2017-09-02T23:29:05.760Z,12.10
2017-09-02T23:31:39.347Z,12.20
2017-09-02T23:34:12.992Z,12.30
2017-09-02T23:36:46.549Z,12.40
2017-09-02T23:39:20.102Z,12.30
2017-09-02T23:41:53.661Z,12.40
2017-09-02T23:44:27.247Z,12.50
2017-09-02T23:47:00.896Z,12.50
2017-09-02T23:49:34.501Z,12.50
2017-09-02T23:52:08.156Z,12.50
2017-09-02T23:54:41.706Z,12.60
2017-09-02T23:57:15.259Z,12.60
2017-09-02T23:59:48.887Z,12.60
